Time,TemperatureF,DewpointF,PressureIn,WindDirection,WindDirectionDegrees,WindSpeedMPH,WindSpeedGustMPH,Humidity,HourlyPrecipIn,Conditions,Clouds,dailyrainin,SoftwareType,DateUTC
2013-03-06 00:07:00,33.7,25.8,29.88,NNE,23,1.1,3.4,73,0.00,,,0.00,WUHU216HW,2013-03-06 05:07:00,
2013-03-06 00:22:00,34.6,26.1,29.87,WNW,293,0.4,2.2,71,0.00,,,0.00,WUHU216HW,2013-03-06 05:22:00,
2013-03-06 00:37:00,33.8,25.4,29.87,NNW,338,1.1,2.5,71,0.00,,,0.00,WUHU216HW,2013-03-06 05:37:00,
2013-03-06 00:52:00,33.5,25.4,29.87,NNW,338,0.2,3.4,72,0.00,,,0.00,WUHU216HW,2013-03-06 05:52:00,
2013-03-06 01:07:00,33.5,25.7,29.88,North,0,0.2,2.5,73,0.00,,,0.00,WUHU216HW,2013-03-06 06:07:00,
2013-03-06 01:22:00,33.1,25.4,29.88,North,0,0.7,1.8,73,0.00,,,0.00,WUHU216HW,2013-03-06 06:22:00,
2013-03-06 01:38:00,32.9,25.2,29.88,NNW,338,0.9,1.3,73,0.00,,,0.00,WUHU216HW,2013-03-06 06:38:00,
2013-03-06 01:53:00,33.1,25.7,29.89,North,0,0.2,1.6,74,0.00,,,0.00,WUHU216HW,2013-03-06 06:53:00,
2013-03-06 02:08:00,33.1,25.7,29.89,North,0,1.1,2.0,74,0.00,,,0.00,WUHU216HW,2013-03-06 07:08:00,
2013-03-06 02:23:00,33.3,25.8,29.89,NW,315,0.4,2.0,74,0.00,,,0.00,WUHU216HW,2013-03-06 07:23:00,
2013-03-06 02:38:00,33.5,26.0,29.90,North,0,1.6,2.7,74,0.00,,,0.00,WUHU216HW,2013-03-06 07:38:00,
2013-03-06 02:53:00,33.5,26.0,29.90,North,0,2.5,2.5,74,0.00,,,0.00,WUHU216HW,2013-03-06 07:53:00,
2013-03-06 03:08:00,33.5,26.0,29.91,NNW,338,2.2,2.5,74,0.00,,,0.00,WUHU216HW,2013-03-06 08:08:00,
2013-03-06 03:23:00,33.5,26.0,29.91,NNW,338,0.4,3.1,74,0.00,,,0.00,WUHU216HW,2013-03-06 08:23:00,
2013-03-06 03:38:00,33.5,26.0,29.92,NNW,338,1.1,3.4,74,0.00,,,0.00,WUHU216HW,2013-03-06 08:38:00,
2013-03-06 03:53:00,33.5,26.0,29.92,NNW,338,3.1,3.1,74,0.00,,,0.00,WUHU216HW,2013-03-06 08:53:00,
2013-03-06 04:08:00,33.3,26.2,29.93,NNW,338,2.7,5.1,75,0.00,,,0.00,WUHU216HW,2013-03-06 09:08:00,
2013-03-06 04:23:00,33.3,26.2,29.94,NNW,338,4.0,4.0,75,0.00,,,0.00,WUHU216HW,2013-03-06 09:23:00,
2013-03-06 04:38:00,33.3,26.2,29.94,NNE,23,0.4,3.1,75,0.00,,,0.00,WUHU216HW,2013-03-06 09:38:00,
2013-03-06 04:53:00,33.5,26.3,29.96,NNE,23,2.5,2.5,75,0.00,,,0.00,WUHU216HW,2013-03-06 09:53:00,
2013-03-06 05:08:00,33.5,26.3,29.97,NW,315,2.5,3.1,75,0.00,,,0.00,WUHU216HW,2013-03-06 10:08:00,
2013-03-06 05:23:00,33.5,26.6,29.97,NNW,338,0.2,3.4,76,0.00,,,0.00,WUHU216HW,2013-03-06 10:23:00,
2013-03-06 05:38:00,33.5,26.6,29.98,NNE,23,0.7,3.4,76,0.00,,,0.00,WUHU216HW,2013-03-06 10:38:00,
2013-03-06 05:53:00,33.5,26.6,29.99,ENE,68,2.5,2.5,76,0.00,,,0.00,WUHU216HW,2013-03-06 10:53:00,
2013-03-06 06:09:00,33.7,26.8,30.00,North,0,2.5,3.1,76,0.00,,,0.00,WUHU216HW,2013-03-06 11:09:00,
2013-03-06 06:24:00,33.5,26.6,30.02,NNW,338,0.7,4.9,76,0.00,,,0.00,WUHU216HW,2013-03-06 11:24:00,
2013-03-06 06:39:00,33.5,26.6,30.03,NNW,338,1.8,2.5,76,0.00,,,0.00,WUHU216HW,2013-03-06 11:39:00,
2013-03-06 06:54:00,33.3,26.8,30.04,North,0,3.4,4.9,77,0.00,,,0.00,WUHU216HW,2013-03-06 11:54:00,
2013-03-06 07:09:00,33.1,26.6,30.05,NNW,338,3.4,4.0,77,0.00,,,0.00,WUHU216HW,2013-03-06 12:09:00,
2013-03-06 07:24:00,33.1,26.6,30.06,NNE,23,1.3,3.6,77,0.00,,,0.00,WUHU216HW,2013-03-06 12:24:00,
2013-03-06 07:39:00,33.3,26.8,30.08,North,0,1.3,6.0,77,0.00,,,0.00,WUHU216HW,2013-03-06 12:39:00,
2013-03-06 07:54:00,33.3,26.5,30.09,North,0,2.5,4.9,76,0.00,,,0.00,WUHU216HW,2013-03-06 12:54:00,
2013-03-06 08:09:00,33.5,27.0,30.10,NNW,338,1.1,5.1,77,0.00,,,0.00,WUHU216HW,2013-03-06 13:09:00,
2013-03-06 08:24:00,33.7,26.8,30.12,NW,315,0.4,4.0,76,0.00,,,0.00,WUHU216HW,2013-03-06 13:24:00,
2013-03-06 08:39:00,34.2,27.4,30.14,North,0,4.0,4.0,76,0.00,,,0.00,WUHU216HW,2013-03-06 13:39:00,
2013-03-06 08:54:00,34.6,27.0,30.15,ENE,68,1.8,3.6,74,0.00,,,0.00,WUHU216HW,2013-03-06 13:54:00,
2013-03-06 09:09:00,35.1,27.3,30.16,NE,45,1.3,5.4,73,0.00,,,0.00,WUHU216HW,2013-03-06 14:09:00,
2013-03-06 09:24:00,36.4,28.5,30.16,ESE,113,4.0,7.4,73,0.00,,,0.00,WUHU216HW,2013-03-06 14:24:00,
2013-03-06 09:39:00,37.1,28.3,30.17,NW,315,4.3,4.9,70,0.00,,,0.00,WUHU216HW,2013-03-06 14:39:00,
2013-03-06 09:55:00,38.5,28.4,30.17,North,0,3.8,6.9,67,0.00,,,0.00,WUHU216HW,2013-03-06 14:55:00,
2013-03-06 10:10:00,38.7,29.0,30.18,North,0,4.0,4.0,68,0.00,,,0.00,WUHU216HW,2013-03-06 15:10:00,
2013-03-06 10:25:00,39.2,28.7,30.19,NW,315,1.8,5.4,66,0.00,,,0.00,WUHU216HW,2013-03-06 15:25:00,
2013-03-06 10:40:00,40.3,29.4,30.20,NNE,23,4.0,5.4,65,0.00,,,0.00,WUHU216HW,2013-03-06 15:40:00,
2013-03-06 10:55:00,41.2,30.0,30.20,NW,315,1.3,5.1,64,0.00,,,0.00,WUHU216HW,2013-03-06 15:55:00,
2013-03-06 11:10:00,41.8,30.9,30.20,NNE,23,6.0,6.0,65,0.00,,,0.00,WUHU216HW,2013-03-06 16:10:00,
2013-03-06 11:25:00,42.7,30.9,30.20,NW,315,3.4,7.6,63,0.00,,,0.00,WUHU216HW,2013-03-06 16:25:00,
2013-03-06 11:40:00,43.2,31.8,30.19,NW,315,3.1,5.6,64,0.00,,,0.00,WUHU216HW,2013-03-06 16:40:00,
2013-03-06 11:55:00,43.7,32.0,30.19,NNW,338,6.3,7.8,63,0.00,,,0.00,WUHU216HW,2013-03-06 16:55:00,
2013-03-06 12:10:00,44.6,32.4,30.19,North,0,3.6,7.4,62,0.00,,,0.00,WUHU216HW,2013-03-06 17:10:00,
2013-03-06 12:25:00,43.9,31.8,30.19,North,0,6.9,6.9,62,0.00,,,0.00,WUHU216HW,2013-03-06 17:25:00,
2013-03-06 12:41:00,45.0,32.8,30.19,WSW,248,3.6,10.7,62,0.00,,,0.00,WUHU216HW,2013-03-06 17:41:00,
2013-03-06 12:56:00,44.8,31.9,30.19,SSW,203,3.4,10.5,60,0.00,,,0.00,WUHU216HW,2013-03-06 17:56:00,
2013-03-06 13:11:00,45.5,31.6,30.18,NNW,338,4.7,7.2,58,0.00,,,0.00,WUHU216HW,2013-03-06 18:11:00,
2013-03-06 13:26:00,46.3,32.2,30.18,North,0,1.8,6.7,58,0.00,,,0.00,WUHU216HW,2013-03-06 18:26:00,
2013-03-06 13:41:00,46.1,31.6,30.18,NNW,338,4.3,6.9,57,0.00,,,0.00,WUHU216HW,2013-03-06 18:41:00,
2013-03-06 13:56:00,45.4,31.4,30.18,NNW,338,5.6,9.2,58,0.00,,,0.00,WUHU216HW,2013-03-06 18:56:00,
2013-03-06 14:11:00,47.2,33.1,30.18,NNW,338,3.1,6.5,58,0.00,,,0.00,WUHU216HW,2013-03-06 19:11:00,
2013-03-06 14:26:00,43.9,30.1,30.18,NNE,23,6.5,7.2,58,0.00,,,0.00,WUHU216HW,2013-03-06 19:26:00,
2013-03-06 14:41:00,42.5,29.5,30.19,NW,315,5.4,6.3,60,0.00,,,0.00,WUHU216HW,2013-03-06 19:41:00,
2013-03-06 14:56:00,42.1,30.0,30.20,North,0,6.0,6.0,62,0.00,,,0.00,WUHU216HW,2013-03-06 19:56:00,
2013-03-06 15:11:00,41.8,29.7,30.20,North,0,1.8,7.4,62,0.00,,,0.00,WUHU216HW,2013-03-06 20:11:00,
2013-03-06 15:26:00,43.4,29.5,30.21,North,0,5.4,6.3,58,0.00,,,0.00,WUHU216HW,2013-03-06 20:26:00,
2013-03-06 15:41:00,43.6,29.7,30.23,North,0,5.1,6.9,58,0.00,,,0.00,WUHU216HW,2013-03-06 20:41:00,
2013-03-06 15:56:00,43.2,28.1,30.22,NNW,338,7.6,10.3,55,0.00,,,0.00,WUHU216HW,2013-03-06 20:56:00,
2013-03-06 16:11:00,43.6,28.5,30.22,NNE,23,6.5,6.5,55,0.00,,,0.00,WUHU216HW,2013-03-06 21:11:00,
2013-03-06 16:27:00,42.7,27.1,30.23,North,0,3.8,6.7,54,0.00,,,0.00,WUHU216HW,2013-03-06 21:27:00,
2013-03-06 16:42:00,42.5,27.8,30.23,NNW,338,6.9,6.9,56,0.00,,,0.00,WUHU216HW,2013-03-06 21:42:00,
2013-03-06 16:57:00,41.8,27.5,30.22,NNW,338,6.7,7.6,57,0.00,,,0.00,WUHU216HW,2013-03-06 21:57:00,
2013-03-06 17:12:00,41.4,28.2,30.23,North,0,1.8,6.9,59,0.00,,,0.00,WUHU216HW,2013-03-06 22:12:00,
2013-03-06 17:27:00,41.4,29.0,30.24,NW,315,1.6,4.5,61,0.00,,,0.00,WUHU216HW,2013-03-06 22:27:00,
2013-03-06 17:42:00,40.3,28.3,30.25,NNW,338,6.3,9.4,62,0.00,,,0.00,WUHU216HW,2013-03-06 22:42:00,
2013-03-06 17:57:00,39.6,28.0,30.25,North,0,4.0,5.6,63,0.00,,,0.00,WUHU216HW,2013-03-06 22:57:00,
2013-03-06 18:12:00,39.1,28.5,30.25,NNW,338,0.7,2.7,66,0.00,,,0.00,WUHU216HW,2013-03-06 23:12:00,
2013-03-06 18:27:00,38.3,28.7,30.25,WNW,293,0.9,5.4,68,0.00,,,0.00,WUHU216HW,2013-03-06 23:27:00,
2013-03-06 18:42:00,37.8,28.5,30.26,North,0,1.6,2.7,69,0.00,,,0.00,WUHU216HW,2013-03-06 23:42:00,
2013-03-06 18:57:00,36.9,28.7,30.28,NNW,338,2.5,3.4,72,0.00,,,0.00,WUHU216HW,2013-03-06 23:57:00,
2013-03-06 19:12:00,36.2,28.4,30.28,NW,315,0.7,2.2,73,0.00,,,0.00,WUHU216HW,2013-03-07 00:12:00,
2013-03-06 19:27:00,35.6,28.8,30.28,North,0,0.0,1.6,76,0.00,,,0.00,WUHU216HW,2013-03-07 00:27:00,
2013-03-06 19:42:00,35.5,28.6,30.28,NNE,23,0.4,1.8,76,0.00,,,0.00,WUHU216HW,2013-03-07 00:42:00,
2013-03-06 19:57:00,35.5,28.6,30.29,North,0,1.1,2.2,76,0.00,,,0.00,WUHU216HW,2013-03-07 00:57:00,
2013-03-06 20:12:00,35.3,28.5,30.30,NNE,23,0.9,2.0,76,0.00,,,0.00,WUHU216HW,2013-03-07 01:12:00,
2013-03-06 20:27:00,35.6,29.1,30.30,North,0,3.4,3.6,77,0.00,,,0.00,WUHU216HW,2013-03-07 01:27:00,
2013-03-06 20:42:00,35.6,29.1,30.30,North,0,0.0,1.8,77,0.00,,,0.00,WUHU216HW,2013-03-07 01:42:00,
2013-03-06 20:58:00,35.6,28.8,30.30,NNW,338,0.4,0.9,76,0.00,,,0.00,WUHU216HW,2013-03-07 01:58:00,
2013-03-06 21:13:00,34.9,28.4,30.31,NNW,338,0.9,0.9,77,0.00,,,0.00,WUHU216HW,2013-03-07 02:13:00,
2013-03-06 21:28:00,34.9,29.0,30.32,NW,315,0.7,2.2,79,0.00,,,0.00,WUHU216HW,2013-03-07 02:28:00,
2013-03-06 21:43:00,34.6,28.4,30.33,WNW,293,0.7,2.0,78,0.00,,,0.00,WUHU216HW,2013-03-07 02:43:00,
2013-03-06 21:58:00,34.6,28.6,30.33,NW,315,0.7,1.3,79,0.00,,,0.00,WUHU216HW,2013-03-07 02:58:00,
2013-03-06 22:13:00,34.6,28.6,30.33,North,0,0.4,1.1,79,0.00,,,0.00,WUHU216HW,2013-03-07 03:13:00,
2013-03-06 22:28:00,34.4,28.8,30.33,West,270,1.6,1.6,80,0.00,,,0.00,WUHU216HW,2013-03-07 03:28:00,
2013-03-06 22:43:00,34.4,28.8,30.34,NW,315,0.4,1.1,80,0.00,,,0.00,WUHU216HW,2013-03-07 03:43:00,
2013-03-06 22:58:00,34.2,28.6,30.34,NNW,338,0.9,2.0,80,0.00,,,0.00,WUHU216HW,2013-03-07 03:58:00,
2013-03-06 23:13:00,34.2,28.6,30.33,NNE,23,0.0,1.3,80,0.00,,,0.00,WUHU216HW,2013-03-07 04:13:00,
2013-03-06 23:28:00,34.2,28.6,30.34,NW,315,0.0,2.5,80,0.00,,,0.00,WUHU216HW,2013-03-07 04:28:00,
2013-03-06 23:43:00,34.4,29.3,30.34,NW,315,1.8,1.8,82,0.00,,,0.00,WUHU216HW,2013-03-07 04:43:00,
2013-03-06 23:58:00,34.2,28.9,30.34,NNW,338,0.4,1.3,81,0.00,,,0.00,WUHU216HW,2013-03-07 04:58:00,